Overview Statistics Trail Chart Weather Telemetry Raw packets
 

This is the latest recevied weather packets stored in our database for station/object OE5MMP-13. If no packets are shown the sender has not sent any weather packets the latest 10 day(s).

<< 13 14 15 16 17 18 19 >>
Time Temp. Humidity Pressure Rain* Wind** Luminosity Snow
1788465794 19.44° C 64% 1022.4 hPa 0 mm - 0 W/m² -
1788465193 19.44° C 64% 1022.3 hPa 0 mm - 0 W/m² -
1788463993 20° C 63% 1022.4 hPa 0 mm - 0 W/m² -
1788463393 20° C 65% 1022.2 hPa 0 mm - 0 W/m² -
1788462794 20° C 61% 1022.1 hPa 0 mm - 0 W/m² -
1788462193 20° C 62% 1022 hPa 0 mm - 0 W/m² -
1788461593 20° C 63% 1022 hPa 0 mm - 0 W/m² -
1788460993 20° C 64% 1021.8 hPa 0 mm - 0 W/m² -
1788460393 20° C 63% 1021.9 hPa 0 mm - 0 W/m² -
1788459793 20.56° C 63% 1021.8 hPa 0 mm - 0 W/m² -
1788459193 21.11° C 61% 1021.7 hPa 0 mm - 0 W/m² -
1788458593 21.67° C 60% 1021.8 hPa 0 mm - 0 W/m² -
1788457993 21.67° C 58% 1021.7 hPa 0 mm - 0 W/m² -
1788457393 22.22° C 57% 1021.6 hPa 0 mm - 0 W/m² -
1788456793 22.22° C 56% 1021.5 hPa 0 mm - 1 W/m² -
1788456194 22.22° C 55% 1021.3 hPa 0 mm - 9 W/m² -
1788455593 22.22° C 54% 1021.4 hPa 0 mm - 11 W/m² -
1788454993 22.78° C 54% 1021.5 hPa 0 mm - 20 W/m² -
1788454392 22.78° C 53% 1021.3 hPa 0 mm - 21 W/m² -
1788453792 22.78° C 52% 1021.3 hPa 0 mm - 19 W/m² -
1788453192 23.33° C 52% 1021.4 hPa 0 mm - 42 W/m² -
1788452592 23.33° C 52% 1021.4 hPa 0 mm - 53 W/m² -
1788451992 23.33° C 51% 1021.3 hPa 0 mm - 88 W/m² -
1788451392 23.33° C 50% 1021.2 hPa 0 mm - 97 W/m² -
1788450792 23.89° C 50% 1021.5 hPa 0 mm - 283 W/m² -

* Rain latest hour (hover to see other rain measurements)
** Current wind speed in m/s (hover to see current wind gust speed)